Titonka, IA

3:44 PM CST on November 24, 2014 (GMT -0600)
Mason City Municipal | Change Station
CLOSE
Current Station
Airport
Location: Mason City,
Elevation: 1214 ft
Nearby Weather Stations
Active Advisory: Wind Advisory

Elev 1214 ft 43.16 °N, 93.33 °W | Updated 51 minutes ago

Overcast
Overcast
20 °F
Feels Like 2 °F
N
28
Wind Variable Wind from WNW
Gusts 36 mph

Today
High -- | Low -- °F
--% Chance of Precip.
Yesterday
High -- | Low -- °F
Precip. -- in
7:20 AM 4:45 PM
Waxing Crescent, 7% visible
Pressure 29.65 in
Visibility 10.0 miles
Clouds Mostly Cloudy 1800 ft
Overcast 6500 ft
Windchill 2 °F
Dew Point 14 °F
Humidity 78%
Rainfall 0.01 in
Snow Depth Not available.
UV 0 out of 12
Pollen .10 out of 12
Air Quality Not available.
Flu Activity Not available.
METAR KMCW 242053Z AUTO 30024G31KT 10SM BKN018 OVC065 M07/M10 A2962 RMK AO2 PK WND 30034/2003 UPE10B32E36SNB10E32 SLP041 P0000 60000 T10671100 53034

More Conditions Fewer Conditions

Pressure 29.65 in
Visibility 10.0 miles
Clouds Mostly Cloudy 1800 ft
Overcast 6500 ft
Windchill 2 °F
Dew Point 14 °F
Humidity 78%
Rainfall 0.01 in
Snow Depth Not available.
UV 0 out of 12
Pollen .10 out of 12
Air Quality Not available.
Flu Activity Not available.
METAR KMCW 242053Z AUTO 30024G31KT 10SM BKN018 OVC065 M07/M10 A2962 RMK AO2 PK WND 30034/2003 UPE10B32E36SNB10E32 SLP041 P0000 60000 T10671100 53034

More Conditions Fewer Conditions

10-Day Weather Forecast

Almanac

Astronomy

Nov. 24, 2014 Rise Set
Actual Time
Civil Twilight
Nautical Twilight
Astronomical Twilight
Moon
Length of Visible Light
Length of Day
Tomorrow will be .
, % of the Moon is Illuminated

Today's Extremes

State Highs State Lows

Community

WunderPhotos

Upload Photos

1,773,415 photos uploaded!

WunderBlogs® & News

Nearby

Air Quality

  Air Quality AQ Index Pollutant
Not available.

Snow Depth

Station Depth Elevation

Earthquake Activity

City Distance Mag. Time & Date
Minimum magnitude displayed is 2.5.

Coastal Water Temperatures

Place Temperature

Nearby Weather Stations